createdAt,value
2023-05-23T00:00:06.396Z,10.37
2023-05-23T00:02:35.181Z,8.03
2023-05-23T00:05:03.649Z,8.10
2023-05-23T00:07:32.504Z,10.40
2023-05-23T00:10:01.590Z,9.23
2023-05-23T00:12:29.527Z,7.97
2023-05-23T00:14:57.469Z,11.00
2023-05-23T00:17:25.624Z,9.23
2023-05-23T00:19:53.380Z,11.80
2023-05-23T00:22:20.970Z,8.70
2023-05-23T00:24:48.489Z,11.63
2023-05-23T00:27:17.467Z,13.20
2023-05-23T00:29:45.002Z,14.43
2023-05-23T00:32:12.589Z,12.40
2023-05-23T00:34:40.271Z,11.70
2023-05-23T00:37:08.155Z,11.10
2023-05-23T00:39:35.734Z,14.60
2023-05-23T00:42:05.184Z,12.37
2023-05-23T00:44:34.204Z,11.40
2023-05-23T00:47:01.835Z,13.63
2023-05-23T00:49:30.115Z,13.70
2023-05-23T00:51:57.717Z,14.43
2023-05-23T00:54:27.282Z,12.90
2023-05-23T00:56:55.516Z,12.20
2023-05-23T00:59:24.376Z,9.23
2023-05-23T01:01:53.642Z,9.90
2023-05-23T01:04:21.504Z,10.90
2023-05-23T01:06:49.312Z,14.63
2023-05-23T01:09:18.063Z,9.30
2023-05-23T01:11:49.424Z,14.13
2023-05-23T01:14:20.101Z,8.57
2023-05-23T01:16:49.416Z,11.23
2023-05-23T01:19:36.186Z,13.63
2023-05-23T01:22:07.330Z,10.13
2023-05-23T01:24:39.662Z,9.43
2023-05-23T01:27:10.171Z,11.83
2023-05-23T01:29:40.803Z,10.37
2023-05-23T01:32:11.612Z,8.37
2023-05-23T01:34:40.241Z,8.17
2023-05-23T01:37:09.525Z,7.90
2023-05-23T01:39:37.334Z,9.27
2023-05-23T01:42:05.462Z,10.90
2023-05-23T01:44:33.654Z,11.73
2023-05-23T01:47:03.814Z,12.20
2023-05-23T01:49:31.835Z,9.83
2023-05-23T01:52:00.262Z,9.23
2023-05-23T01:54:29.330Z,9.07
2023-05-23T01:56:58.327Z,12.20
2023-05-23T01:59:25.872Z,8.20
2023-05-23T02:01:53.680Z,9.60
2023-05-23T02:04:22.564Z,9.57
2023-05-23T02:06:50.148Z,10.40
2023-05-23T02:09:17.782Z,9.07
2023-05-23T02:11:45.333Z,8.00
2023-05-23T02:14:12.944Z,8.13
2023-05-23T02:16:40.662Z,6.63
2023-05-23T02:19:08.252Z,8.00
2023-05-23T02:21:37.202Z,7.63
2023-05-23T02:24:04.816Z,8.13
2023-05-23T02:26:32.606Z,6.23
2023-05-23T02:29:00.779Z,7.03
2023-05-23T02:31:28.987Z,7.93
2023-05-23T02:33:56.546Z,7.10
2023-05-23T02:36:24.144Z,7.03
2023-05-23T02:38:53.093Z,7.43
2023-05-23T02:41:21.354Z,7.60
2023-05-23T02:43:48.871Z,7.33
2023-05-23T02:46:16.521Z,7.70
2023-05-23T02:48:44.624Z,9.20
2023-05-23T02:51:13.705Z,6.47
2023-05-23T02:53:41.249Z,7.77
2023-05-23T02:56:10.320Z,6.70
2023-05-23T02:58:37.948Z,7.10
2023-05-23T03:01:07.590Z,6.30
2023-05-23T03:03:35.803Z,7.00
2023-05-23T03:06:04.974Z,7.20
2023-05-23T03:08:32.467Z,7.00
2023-05-23T03:11:00.117Z,6.37
2023-05-23T03:13:29.478Z,6.60
2023-05-23T03:15:57.083Z,5.87
2023-05-23T03:18:25.196Z,5.87
2023-05-23T03:20:52.709Z,4.77
2023-05-23T03:23:20.257Z,4.97
2023-05-23T03:25:47.861Z,4.67
2023-05-23T03:28:15.435Z,5.27
2023-05-23T03:30:44.320Z,5.10
2023-05-23T03:33:12.262Z,4.00
2023-05-23T03:35:40.352Z,4.77
2023-05-23T03:38:08.221Z,5.30
2023-05-23T03:40:35.736Z,4.40
2023-05-23T03:43:04.648Z,5.10
2023-05-23T03:45:32.237Z,4.83
2023-05-23T03:48:01.176Z,5.83
2023-05-23T03:50:28.783Z,5.30
2023-05-23T03:52:56.303Z,6.80
2023-05-23T03:55:24.204Z,5.40
2023-05-23T03:57:52.180Z,5.30
2023-05-23T04:00:20.284Z,5.97
2023-05-23T04:02:48.338Z,6.17
2023-05-23T04:05:17.412Z,7.70
2023-05-23T04:07:46.340Z,6.93
2023-05-23T04:10:13.897Z,11.63
2023-05-23T04:12:41.679Z,7.30
2023-05-23T04:15:10.076Z,8.03
2023-05-23T04:17:38.861Z,6.97
2023-05-23T04:20:08.146Z,9.50
2023-05-23T04:22:37.156Z,7.77
2023-05-23T04:25:04.952Z,7.60
2023-05-23T04:27:32.505Z,9.53
2023-05-23T04:30:00.680Z,8.80
2023-05-23T04:32:28.450Z,8.03
2023-05-23T04:34:56.896Z,9.70
2023-05-23T04:37:26.365Z,9.23
2023-05-23T04:39:55.393Z,12.40
2023-05-23T04:42:24.855Z,6.63
2023-05-23T04:44:52.780Z,7.50
2023-05-23T04:47:20.632Z,13.87
2023-05-23T04:49:48.254Z,9.87
2023-05-23T04:52:15.800Z,8.20
2023-05-23T04:54:44.982Z,7.73
2023-05-23T04:57:14.042Z,9.20
2023-05-23T04:59:42.538Z,8.60
2023-05-23T05:02:10.416Z,9.00
2023-05-23T05:04:38.058Z,9.33
2023-05-23T05:07:06.089Z,10.00
2023-05-23T05:09:33.740Z,8.10
2023-05-23T05:12:01.331Z,9.53
2023-05-23T05:14:30.345Z,8.20
2023-05-23T05:16:58.304Z,11.03
2023-05-23T05:19:26.258Z,8.97
2023-05-23T05:21:53.963Z,8.63
2023-05-23T05:24:23.120Z,9.50
2023-05-23T05:26:50.996Z,8.40
2023-05-23T05:29:18.504Z,9.03
2023-05-23T05:31:47.505Z,15.37
2023-05-23T05:34:15.101Z,11.47
2023-05-23T05:36:46.929Z,8.53
2023-05-23T05:39:15.095Z,11.23
2023-05-23T05:41:42.609Z,8.43
2023-05-23T05:44:11.048Z,9.37
2023-05-23T05:46:38.596Z,10.97
2023-05-23T05:49:08.189Z,9.30
2023-05-23T05:51:36.406Z,10.60
2023-05-23T05:54:04.004Z,12.53
2023-05-23T05:56:31.699Z,7.87
2023-05-23T05:58:59.203Z,10.87
2023-05-23T06:01:26.869Z,9.63
2023-05-23T06:03:54.764Z,10.00
2023-05-23T06:06:23.821Z,11.70
2023-05-23T06:08:51.429Z,12.00
2023-05-23T06:11:18.986Z,20.03
2023-05-23T06:13:46.566Z,12.43
2023-05-23T06:16:15.286Z,11.30
2023-05-23T06:18:42.986Z,9.37
2023-05-23T06:21:10.753Z,11.23
2023-05-23T06:23:39.805Z,12.47
2023-05-23T06:26:10.558Z,14.77
2023-05-23T06:28:39.062Z,11.60
2023-05-23T06:31:06.802Z,14.53
2023-05-23T06:33:34.309Z,15.30
2023-05-23T06:36:01.806Z,13.10
2023-05-23T06:38:30.564Z,12.97
2023-05-23T06:40:59.498Z,13.13
2023-05-23T06:43:27.022Z,13.23
2023-05-23T06:45:55.265Z,16.87
2023-05-23T06:48:22.939Z,17.53
2023-05-23T06:50:50.531Z,15.30
2023-05-23T06:53:19.374Z,15.47
2023-05-23T06:55:47.118Z,17.80
2023-05-23T06:58:16.822Z,17.97
2023-05-23T07:00:44.521Z,20.70
2023-05-23T07:03:12.320Z,17.40
2023-05-23T07:05:41.323Z,18.47
2023-05-23T07:08:10.932Z,13.10
2023-05-23T07:10:41.572Z,13.40
2023-05-23T07:13:09.484Z,13.10
2023-05-23T07:15:38.346Z,14.10
2023-05-23T07:18:06.073Z,12.77
2023-05-23T07:20:34.006Z,15.03
2023-05-23T07:23:01.641Z,15.03
2023-05-23T07:25:29.161Z,14.33
2023-05-23T07:27:56.749Z,14.30
2023-05-23T07:30:24.348Z,14.37
2023-05-23T07:32:53.714Z,12.90
2023-05-23T07:35:25.987Z,15.13
2023-05-23T07:37:54.062Z,11.13
2023-05-23T07:40:22.048Z,11.67
2023-05-23T07:42:49.658Z,13.67
2023-05-23T07:45:17.255Z,16.30
2023-05-23T07:47:44.882Z,12.50
2023-05-23T07:50:13.806Z,18.03
2023-05-23T07:52:41.542Z,13.07
2023-05-23T07:55:09.639Z,12.17
2023-05-23T07:57:37.176Z,13.23
2023-05-23T08:00:06.217Z,13.73
2023-05-23T08:02:33.837Z,14.27
2023-05-23T08:05:01.702Z,13.20
2023-05-23T08:07:31.163Z,17.80
2023-05-23T08:09:58.647Z,20.57
2023-05-23T08:12:26.234Z,17.43
2023-05-23T08:14:53.837Z,18.30
2023-05-23T08:17:21.465Z,14.60
2023-05-23T08:19:49.234Z,18.73
2023-05-23T08:22:16.778Z,20.50
2023-05-23T08:24:45.684Z,17.43
2023-05-23T08:27:13.163Z,15.10
2023-05-23T08:29:41.312Z,14.20
2023-05-23T08:32:08.907Z,16.00
2023-05-23T08:34:36.464Z,15.80
2023-05-23T08:37:04.181Z,14.57
2023-05-23T08:39:31.713Z,16.60
2023-05-23T08:42:00.865Z,15.30
2023-05-23T08:44:28.517Z,17.27
2023-05-23T08:46:58.456Z,19.10
2023-05-23T08:49:26.524Z,16.50
2023-05-23T08:51:56.084Z,17.43
2023-05-23T08:54:23.566Z,16.43
2023-05-23T08:56:52.237Z,16.43
2023-05-23T08:59:21.973Z,16.10
2023-05-23T09:01:49.790Z,17.97
2023-05-23T09:04:17.376Z,15.13
2023-05-23T09:06:44.945Z,16.20
2023-05-23T09:09:12.577Z,13.10
2023-05-23T09:11:40.395Z,12.73
2023-05-23T09:14:08.988Z,16.20
2023-05-23T09:16:37.966Z,18.07
2023-05-23T09:19:11.651Z,13.33
2023-05-23T09:21:42.732Z,14.30
2023-05-23T09:24:10.296Z,15.00
2023-05-23T09:26:38.304Z,14.43
2023-05-23T09:29:06.804Z,14.70
2023-05-23T09:31:34.689Z,13.93
2023-05-23T09:34:03.890Z,14.63
2023-05-23T09:36:33.778Z,16.97
2023-05-23T09:39:03.617Z,15.90
2023-05-23T09:41:31.628Z,17.17
2023-05-23T09:43:59.993Z,16.17
2023-05-23T09:46:29.704Z,17.37
2023-05-23T09:48:57.331Z,18.23
2023-05-23T09:51:26.321Z,25.17
2023-05-23T09:53:54.031Z,22.30
2023-05-23T09:56:23.580Z,23.20
2023-05-23T09:58:51.797Z,24.83
2023-05-23T10:01:19.560Z,28.47
2023-05-23T10:03:50.178Z,28.37
2023-05-23T10:06:22.598Z,26.77
2023-05-23T10:08:56.020Z,27.23
2023-05-23T10:11:51.951Z,29.20
2023-05-23T10:14:20.011Z,30.47
2023-05-23T10:16:56.602Z,30.03
2023-05-23T10:19:25.784Z,28.27
2023-05-23T10:21:59.554Z,33.73
2023-05-23T10:24:28.822Z,32.40
2023-05-23T10:26:56.743Z,33.87
2023-05-23T10:29:24.261Z,32.80
2023-05-23T10:31:52.827Z,33.17
2023-05-23T10:34:24.584Z,35.10
2023-05-23T10:36:56.783Z,38.40
2023-05-23T10:39:29.546Z,34.30
2023-05-23T10:42:02.063Z,33.37
2023-05-23T10:44:29.994Z,33.37
2023-05-23T10:47:01.276Z,32.77
2023-05-23T10:49:44.923Z,34.87
2023-05-23T10:52:13.599Z,29.90
2023-05-23T10:54:44.459Z,30.63
2023-05-23T10:57:18.227Z,31.60
2023-05-23T10:59:46.877Z,26.43
2023-05-23T11:02:15.879Z,24.30
2023-05-23T11:04:43.819Z,24.10
2023-05-23T11:07:26.253Z,29.53
2023-05-23T11:10:09.710Z,30.17
2023-05-23T11:12:42.337Z,28.80
2023-05-23T11:15:21.697Z,28.20
2023-05-23T11:17:53.214Z,28.90
2023-05-23T11:20:23.464Z,23.23
2023-05-23T11:23:00.552Z,23.57
2023-05-23T11:25:40.957Z,19.50
2023-05-23T11:28:09.992Z,24.03
2023-05-23T11:30:38.530Z,29.53
2023-05-23T11:33:11.702Z,25.73
2023-05-23T11:35:39.257Z,27.77
2023-05-23T11:38:06.939Z,29.30
2023-05-23T11:40:35.310Z,26.50
2023-05-23T11:43:04.330Z,26.60
2023-05-23T11:45:33.761Z,29.37
2023-05-23T11:48:06.132Z,30.33
2023-05-23T11:50:34.118Z,28.37
2023-05-23T11:53:01.811Z,30.70
2023-05-23T11:55:29.546Z,31.70
2023-05-23T11:57:57.555Z,30.93
2023-05-23T12:00:25.340Z,38.60
2023-05-23T12:02:54.494Z,36.63
2023-05-23T12:05:22.097Z,33.73
2023-05-23T12:07:50.807Z,33.50
2023-05-23T12:10:19.909Z,27.27
2023-05-23T12:12:47.544Z,25.63
2023-05-23T12:15:16.071Z,22.30
2023-05-23T12:17:45.660Z,17.13
2023-05-23T12:20:15.215Z,13.67
2023-05-23T12:22:43.036Z,15.67
2023-05-23T12:25:11.261Z,12.47
2023-05-23T12:27:41.749Z,12.30
2023-05-23T12:30:10.480Z,12.20
2023-05-23T12:32:40.364Z,12.77
2023-05-23T12:35:08.609Z,14.02
2023-05-23T12:37:39.661Z,15.90
2023-05-23T12:40:11.349Z,18.27
2023-05-23T12:42:45.487Z,14.67
2023-05-23T12:45:14.831Z,16.90
2023-05-23T12:47:42.414Z,19.03
2023-05-23T12:50:11.423Z,18.07
2023-05-23T12:52:41.050Z,15.87
2023-05-23T12:55:08.935Z,17.20
2023-05-23T12:57:36.961Z,18.53
2023-05-23T13:00:05.268Z,19.80
2023-05-23T13:02:32.900Z,17.90
2023-05-23T13:05:00.466Z,19.03
2023-05-23T13:07:28.123Z,18.50
2023-05-23T13:09:57.044Z,19.10
2023-05-23T13:12:24.871Z,17.23
2023-05-23T13:14:52.757Z,20.53
2023-05-23T13:17:20.931Z,19.97
2023-05-23T13:19:48.496Z,22.60
2023-05-23T13:22:16.057Z,16.17
2023-05-23T13:24:44.134Z,17.83
2023-05-23T13:27:13.184Z,12.87
2023-05-23T13:29:43.681Z,14.47
2023-05-23T13:32:11.177Z,13.97
2023-05-23T13:34:38.775Z,10.23
2023-05-23T13:37:06.651Z,10.23
2023-05-23T13:39:34.202Z,9.43
2023-05-23T13:42:01.746Z,12.90
2023-05-23T13:44:30.816Z,13.17
2023-05-23T13:46:59.592Z,13.63
2023-05-23T13:49:27.103Z,12.00
2023-05-23T13:51:54.642Z,14.97
2023-05-23T13:54:22.247Z,12.53
2023-05-23T13:56:49.775Z,20.50
2023-05-23T13:59:21.123Z,15.50
2023-05-23T14:01:50.140Z,14.10
2023-05-23T14:04:17.710Z,14.17
2023-05-23T14:06:45.496Z,14.40
2023-05-23T14:09:13.911Z,14.80
2023-05-23T14:11:41.670Z,14.93
2023-05-23T14:14:09.294Z,15.93
2023-05-23T14:16:36.965Z,15.93
2023-05-23T14:19:05.958Z,14.47
2023-05-23T14:21:34.727Z,16.57
2023-05-23T14:24:02.476Z,15.00
2023-05-23T14:26:30.066Z,15.10
2023-05-23T14:28:57.773Z,13.73
2023-05-23T14:31:25.454Z,14.80
2023-05-23T14:33:53.084Z,16.07
2023-05-23T14:36:22.292Z,18.30
2023-05-23T14:38:51.235Z,13.33
2023-05-23T14:41:18.825Z,15.07
2023-05-23T14:43:46.376Z,11.90
2023-05-23T14:46:15.566Z,8.80
2023-05-23T14:48:43.290Z,11.40
2023-05-23T14:51:12.682Z,10.60
2023-05-23T14:53:45.614Z,11.70
2023-05-23T14:56:13.155Z,7.00
2023-05-23T14:58:45.583Z,11.50
2023-05-23T15:01:13.884Z,11.50
2023-05-23T15:03:41.676Z,7.17
2023-05-23T15:06:09.276Z,12.13
2023-05-23T15:08:37.001Z,13.63
2023-05-23T15:11:06.122Z,20.93
2023-05-23T15:13:33.686Z,10.10
2023-05-23T15:16:01.470Z,13.23
2023-05-23T15:18:39.708Z,11.13
2023-05-23T15:21:09.215Z,13.00
2023-05-23T15:23:36.978Z,11.50
2023-05-23T15:26:05.979Z,10.00
2023-05-23T15:28:33.625Z,14.10
2023-05-23T15:31:01.237Z,13.43
2023-05-23T15:33:28.839Z,8.43
2023-05-23T15:35:58.848Z,6.63
2023-05-23T15:38:26.510Z,9.83
2023-05-23T15:40:56.567Z,8.00
2023-05-23T15:43:25.854Z,8.20
2023-05-23T15:45:53.612Z,6.80
2023-05-23T15:48:21.239Z,12.60
2023-05-23T15:50:48.834Z,7.07
2023-05-23T15:53:16.429Z,7.30
2023-05-23T15:55:44.057Z,7.77
2023-05-23T15:58:11.694Z,9.30
2023-05-23T16:00:40.760Z,8.30
2023-05-23T16:03:08.663Z,10.37
2023-05-23T16:05:36.342Z,6.40
2023-05-23T16:08:04.082Z,11.23
2023-05-23T16:10:31.793Z,10.53
2023-05-23T16:12:59.452Z,10.83
2023-05-23T16:15:27.297Z,12.10
2023-05-23T16:17:56.221Z,11.40
2023-05-23T16:20:23.764Z,10.30
2023-05-23T16:22:51.324Z,6.10
2023-05-23T16:25:18.929Z,10.60
2023-05-23T16:27:46.626Z,7.17
2023-05-23T16:30:14.264Z,9.30
2023-05-23T16:32:42.169Z,10.10
2023-05-23T16:35:11.977Z,7.00
2023-05-23T16:37:39.706Z,9.40
2023-05-23T16:40:07.987Z,7.33
2023-05-23T16:42:35.955Z,6.20
2023-05-23T16:45:03.690Z,11.10
2023-05-23T16:47:31.266Z,5.47
2023-05-23T16:49:58.901Z,4.73
2023-05-23T16:52:27.882Z,6.83
2023-05-23T16:54:56.641Z,7.10
2023-05-23T16:57:24.663Z,12.37
2023-05-23T16:59:52.223Z,7.27
2023-05-23T17:02:19.943Z,6.83
2023-05-23T17:04:47.798Z,11.73
2023-05-23T17:07:15.985Z,7.17
2023-05-23T17:09:44.984Z,9.90
2023-05-23T17:12:13.298Z,7.07
2023-05-23T17:14:41.078Z,4.90
2023-05-23T17:17:08.634Z,4.43
2023-05-23T17:19:36.501Z,6.60
2023-05-23T17:22:06.067Z,5.50
2023-05-23T17:24:35.136Z,8.43
2023-05-23T17:27:05.244Z,7.80
2023-05-23T17:29:33.045Z,7.50
2023-05-23T17:32:00.657Z,8.47
2023-05-23T17:34:28.248Z,6.73
2023-05-23T17:36:55.861Z,9.67
2023-05-23T17:39:23.536Z,8.53
2023-05-23T17:41:51.213Z,5.67
2023-05-23T17:44:20.271Z,5.37
2023-05-23T17:46:47.838Z,8.60
2023-05-23T17:49:15.411Z,5.97
2023-05-23T17:51:43.144Z,6.97
2023-05-23T17:54:10.726Z,7.23
2023-05-23T17:56:38.344Z,12.10
2023-05-23T17:59:06.220Z,7.23
2023-05-23T18:01:35.572Z,6.90
2023-05-23T18:04:04.656Z,4.87
2023-05-23T18:06:32.523Z,8.83
2023-05-23T18:09:00.315Z,5.43
2023-05-23T18:11:28.102Z,12.00
2023-05-23T18:13:55.969Z,9.10
2023-05-23T18:16:23.592Z,5.83
2023-05-23T18:18:52.571Z,6.17
2023-05-23T18:21:20.123Z,9.57
2023-05-23T18:23:47.747Z,8.60
2023-05-23T18:26:15.985Z,8.63
2023-05-23T18:28:43.637Z,7.80
2023-05-23T18:31:11.326Z,6.40
2023-05-23T18:33:38.990Z,6.00
2023-05-23T18:36:08.746Z,6.63
2023-05-23T18:38:39.206Z,5.00
2023-05-23T18:41:06.782Z,10.93
2023-05-23T18:43:34.321Z,4.70
2023-05-23T18:46:02.056Z,10.00
2023-05-23T18:48:29.714Z,4.90
2023-05-23T18:50:57.296Z,8.53
2023-05-23T18:53:26.241Z,6.70
2023-05-23T18:55:53.834Z,5.73
2023-05-23T18:58:21.763Z,5.37
2023-05-23T19:00:49.355Z,7.70
2023-05-23T19:03:17.543Z,7.70
2023-05-23T19:05:45.291Z,6.90
2023-05-23T19:08:13.039Z,8.50
2023-05-23T19:10:42.325Z,4.67
2023-05-23T19:13:10.127Z,12.10
2023-05-23T19:15:37.661Z,9.13
2023-05-23T19:18:05.770Z,6.43
2023-05-23T19:20:33.751Z,6.43
2023-05-23T19:23:01.304Z,9.60
2023-05-23T19:25:28.864Z,5.43
2023-05-23T19:27:57.746Z,7.47
2023-05-23T19:30:34.642Z,6.33
2023-05-23T19:33:02.167Z,8.97
2023-05-23T19:35:29.917Z,8.90
2023-05-23T19:37:57.979Z,7.17
2023-05-23T19:40:25.710Z,6.93
2023-05-23T19:42:53.500Z,9.50
2023-05-23T19:45:22.774Z,6.30
2023-05-23T19:47:50.554Z,12.40
2023-05-23T19:50:18.153Z,10.20
2023-05-23T19:52:45.778Z,9.40
2023-05-23T19:55:14.647Z,10.90
2023-05-23T19:57:42.719Z,7.80
2023-05-23T20:00:11.428Z,4.47
2023-05-23T20:02:41.390Z,6.53
2023-05-23T20:05:09.598Z,9.30
2023-05-23T20:07:37.604Z,6.30
2023-05-23T20:10:05.566Z,7.70
2023-05-23T20:12:33.186Z,5.90
2023-05-23T20:15:00.791Z,8.50
2023-05-23T20:17:29.251Z,8.97
2023-05-23T20:19:58.279Z,10.57
2023-05-23T20:22:25.861Z,7.37
2023-05-23T20:24:53.469Z,7.23
2023-05-23T20:27:21.689Z,6.10
2023-05-23T20:29:49.264Z,6.73
2023-05-23T20:32:16.905Z,10.27
2023-05-23T20:34:44.555Z,9.33
2023-05-23T20:37:14.579Z,7.87
2023-05-23T20:39:42.693Z,8.20
2023-05-23T20:42:11.429Z,6.97
2023-05-23T20:44:39.325Z,6.30
2023-05-23T20:47:07.224Z,7.20
2023-05-23T20:49:35.165Z,7.43
2023-05-23T20:52:03.163Z,5.97
2023-05-23T20:54:34.518Z,9.37
2023-05-23T20:57:02.622Z,6.80
2023-05-23T20:59:30.722Z,9.40
2023-05-23T21:01:58.398Z,8.23
2023-05-23T21:04:26.102Z,8.37
2023-05-23T21:06:53.827Z,7.27
2023-05-23T21:09:21.417Z,7.20
2023-05-23T21:11:50.416Z,9.97
2023-05-23T21:14:17.952Z,8.13
2023-05-23T21:16:45.638Z,4.43
2023-05-23T21:19:13.366Z,11.53
2023-05-23T21:21:40.942Z,9.03
2023-05-23T21:24:08.501Z,7.90
2023-05-23T21:26:36.056Z,11.77
2023-05-23T21:29:04.995Z,8.17
2023-05-23T21:31:40.938Z,6.37
2023-05-23T21:34:22.401Z,9.83
2023-05-23T21:36:51.652Z,10.70
2023-05-23T21:39:19.254Z,7.10
2023-05-23T21:41:46.973Z,6.37
2023-05-23T21:44:17.647Z,4.57
2023-05-23T21:46:45.631Z,6.80
2023-05-23T21:49:13.522Z,5.53
2023-05-23T21:51:41.086Z,3.73
2023-05-23T21:54:08.550Z,7.40
2023-05-23T21:56:36.154Z,7.87
2023-05-23T21:59:04.177Z,8.50
2023-05-23T22:01:33.203Z,7.90
2023-05-23T22:04:00.950Z,5.77
2023-05-23T22:06:28.627Z,8.87
2023-05-23T22:08:56.163Z,9.67
2023-05-23T22:11:23.801Z,11.63
2023-05-23T22:13:51.316Z,7.70
2023-05-23T22:16:18.930Z,9.60
2023-05-23T22:18:52.033Z,11.53
2023-05-23T22:21:19.997Z,8.30
2023-05-23T22:23:47.672Z,13.07
2023-05-23T22:26:15.206Z,5.30
2023-05-23T22:28:42.770Z,5.33
2023-05-23T22:31:12.744Z,5.43
2023-05-23T22:33:40.671Z,5.83
2023-05-23T22:36:10.475Z,6.30
2023-05-23T22:38:38.405Z,5.80
2023-05-23T22:41:06.068Z,8.90
2023-05-23T22:43:33.659Z,6.90
2023-05-23T22:46:01.178Z,9.20
2023-05-23T22:48:34.022Z,4.70
2023-05-23T22:51:02.640Z,5.40
2023-05-23T22:53:31.999Z,6.43
2023-05-23T22:55:59.508Z,14.43
2023-05-23T22:58:27.099Z,7.27
2023-05-23T23:00:54.656Z,5.00
2023-05-23T23:03:22.385Z,4.23
2023-05-23T23:05:50.935Z,8.50
2023-05-23T23:08:19.423Z,8.80
2023-05-23T23:10:48.453Z,4.97
2023-05-23T23:13:15.989Z,9.27
2023-05-23T23:15:43.936Z,6.77
2023-05-23T23:18:13.438Z,7.93
2023-05-23T23:20:41.607Z,6.50
2023-05-23T23:23:09.511Z,6.77
2023-05-23T23:25:37.114Z,7.10
2023-05-23T23:28:06.187Z,8.07
2023-05-23T23:30:33.787Z,11.57
2023-05-23T23:33:01.302Z,9.20
2023-05-23T23:35:28.853Z,7.60
2023-05-23T23:37:56.379Z,5.50
2023-05-23T23:40:23.903Z,5.67
2023-05-23T23:42:51.469Z,5.00
2023-05-23T23:45:20.501Z,5.70
2023-05-23T23:47:48.115Z,9.10
2023-05-23T23:50:15.863Z,4.47
2023-05-23T23:52:43.922Z,6.43
2023-05-23T23:55:11.540Z,5.60
2023-05-23T23:57:39.210Z,4.20
